Wakayoshi Maru No.5 — JL6545 — position and weather

sailwx.info

Track history (hours):
 
Tides and Currents Weather Stations Pressure Air Temp Water Temp Dewpoint Dewpoint Depression Visibility Wind Speed Wind Dir Waves Ship Positions

Wakayoshi Maru No.5

Last reported at 2018-Jan-24 07:30 UTC. Time now 2018-Jan-24 07:55 UTC.
Position N 33°45' E 131°44'.

Length 76 m; draft 4.5 m.

Type: Cargo ship. MMSI: 431500615.

Date/timePositionNaut miles runAvg speedWind from/ knotsBaromVisibWave heightAir tempDewpointWater temp
2018-Jan-24 07:30N 33°45' E 131°44'713.2
2018-Jan-24 07:00N 33°47' E 131°36'612.9
2018-Jan-24 06:30N 33°48' E 131°29'612.6
2018-Jan-24 06:01N 33°49' E 131°21'612.6
2018-Jan-24 05:31N 33°51' E 131°14'612.3
2018-Jan-24 05:00N 33°54' E 131°07'612.1
2018-Jan-24 04:31N 33°58' E 131°02'5 9.5
2018-Jan-24 04:01N 33°56' E 130°56'3 6.9
2018-Jan-24 03:30N 33°56' E 130°52'2 4.1
2018-Jan-24 03:00N 33°56' E 130°50'0 0.0
2018-Jan-24 02:30N 33°56' E 130°50'0 0.0
2018-Jan-24 02:00N 33°56' E 130°50'0 0.1
2018-Jan-24 01:30N 33°56' E 130°50'0 0.0
2018-Jan-24 01:00N 33°56' E 130°50'0 0.0
2018-Jan-24 00:30N 33°56' E 130°50'0 0.0
2018-Jan-24 00:00N 33°56' E 130°50'0 0.0
2018-Jan-23 23:30N 33°56' E 130°50'2 4.7
2018-Jan-23 23:00N 33°56' E 130°53'3 5.6
2018-Jan-23 22:29N 33°56' E 130°56'3 6.8
2018-Jan-23 22:00N 33°58' E 130°59'3 6.5
2018-Jan-23 21:30N 33°57' E 131°02'0 0.2
2018-Jan-23 20:59N 33°57' E 131°02'0 0.0
2018-Jan-23 20:29N 33°57' E 131°02'0 0.1
2018-Jan-23 19:58N 33°57' E 131°02'0 0.1
2018-Jan-23 19:28N 33°57' E 131°02'0 0.1
2018-Jan-23 18:58N 33°57' E 131°02'0 0.0
2018-Jan-23 18:28N 33°57' E 131°02'0 0.0
2018-Jan-23 17:58N 33°57' E 131°02'0 0.0
2018-Jan-23 17:28N 33°57' E 131°02'0 0.0
2018-Jan-23 16:59N 33°57' E 131°02'0 0.0
2018-Jan-23 16:28N 33°57' E 131°02'0 0.0
2018-Jan-23 15:58N 33°57' E 131°02'0 0.0
2018-Jan-23 15:28N 33°57' E 131°02'0 0.0
2018-Jan-23 14:58N 33°57' E 131°02'0 0.0
2018-Jan-23 14:28N 33°57' E 131°02'0 0.0
2018-Jan-23 13:58N 33°57' E 131°02'0 0.1
2018-Jan-23 13:29N 33°57' E 131°02'0 0.0
2018-Jan-23 12:59N 33°57' E 131°02'0 0.0
2018-Jan-23 12:28N 33°57' E 131°02'0 0.0
2018-Jan-23 11:59N 33°57' E 131°02'0 0.0
2018-Jan-23 11:28N 33°57' E 131°02'0 0.0
2018-Jan-23 10:58N 33°57' E 131°02'0 0.0
2018-Jan-23 10:29N 33°57' E 131°02'0 0.0
2018-Jan-23 09:58N 33°57' E 131°02'0 0.0
2018-Jan-23 09:28N 33°57' E 131°02'0 0.0
2018-Jan-23 08:59N 33°57' E 131°02'0 0.0
2018-Jan-23 08:29N 33°57' E 131°02'0 0.0
2018-Jan-23 07:59N 33°57' E 131°02'0 0.0
2018-Jan-23 07:29N 33°57' E 131°02'0 0.0
2018-Jan-23 06:58N 33°57' E 131°02'0 0.0
2018-Jan-23 06:28N 33°57' E 131°02'0 0.1
2018-Jan-23 05:58N 33°57' E 131°02'0 0.0
2018-Jan-23 05:28N 33°57' E 131°02'0 0.0
2018-Jan-23 04:58N 33°57' E 131°02'0 0.0
2018-Jan-23 04:28N 33°57' E 131°02'0 0.0
2018-Jan-23 03:58N 33°57' E 131°02'0 0.0
2018-Jan-23 03:28N 33°57' E 131°02'0 0.0
2018-Jan-23 02:58N 33°57' E 131°02'0 0.0
2018-Jan-23 02:28N 33°57' E 131°02'0 0.0
2018-Jan-23 01:58N 33°57' E 131°02'0 0.0
2018-Jan-23 01:28N 33°57' E 131°02'0 0.0
2018-Jan-23 00:58N 33°57' E 131°02'0 0.0
2018-Jan-23 00:29N 33°57' E 131°02'0 0.1
2018-Jan-22 23:58N 33°57' E 131°02'0 0.1
2018-Jan-22 23:29N 33°57' E 131°02'0 0.0
2018-Jan-22 22:58N 33°57' E 131°02'0 0.0
2018-Jan-22 22:28N 33°57' E 131°02'0 0.0
2018-Jan-22 21:58N 33°57' E 131°02'0 0.0
2018-Jan-22 21:28N 33°57' E 131°02'0 0.0
2018-Jan-22 20:58N 33°57' E 131°02'0 0.0
2018-Jan-22 20:28N 33°57' E 131°02'0 0.0
2018-Jan-22 19:58N 33°57' E 131°02'0 0.0
2018-Jan-22 19:28N 33°57' E 131°02'0 0.0
2018-Jan-22 18:58N 33°57' E 131°02'0 0.0
2018-Jan-22 18:28N 33°57' E 131°02'0 0.0
2018-Jan-22 17:58N 33°57' E 131°02'0 0.0
2018-Jan-22 17:28N 33°57' E 131°02'0 0.0
2018-Jan-22 16:58N 33°57' E 131°02'0 0.0
2018-Jan-22 16:28N 33°57' E 131°02'0 0.1
2018-Jan-22 15:58N 33°57' E 131°02'0 0.0
2018-Jan-22 15:28N 33°57' E 131°02'0 0.1
2018-Jan-22 14:58N 33°57' E 131°02'0 0.1
2018-Jan-22 14:28N 33°57' E 131°02'0 0.0
2018-Jan-22 13:58N 33°57' E 131°02'0 0.0
2018-Jan-22 13:28N 33°57' E 131°02'0 0.0
2018-Jan-22 12:58N 33°57' E 131°02'0 0.0
2018-Jan-22 12:28N 33°57' E 131°02'0 0.0
2018-Jan-22 11:58N 33°57' E 131°02'0 0.1
2018-Jan-22 11:28N 33°57' E 131°02'0 0.0
2018-Jan-22 10:58N 33°57' E 131°02'0 0.0
2018-Jan-22 10:28N 33°57' E 131°02'2 5.3
2018-Jan-22 10:00N 33°59' E 131°00'612.5
2018-Jan-22 09:31N 33°54' E 130°55'5 9.5
2018-Jan-22 09:00N 33°56' E 130°49'0 0.0
2018-Jan-22 08:28N 33°56' E 130°49'0 0.0
2018-Jan-22 07:58N 33°56' E 130°49'0 0.0
2018-Jan-22 07:28N 33°56' E 130°49'0 0.0
2018-Jan-22 06:55N 33°56' E 130°49'0 0.0
2018-Jan-22 06:28N 33°56' E 130°49'0 0.0
2018-Jan-22 05:58N 33°56' E 130°49'0 0.0
2018-Jan-22 05:28N 33°56' E 130°49'0 0.0
2018-Jan-22 04:58N 33°56' E 130°49'0 0.0
2018-Jan-22 04:28N 33°56' E 130°49'0 0.0
2018-Jan-22 03:58N 33°56' E 130°49'0 0.0
2018-Jan-22 03:28N 33°56' E 130°49'0 0.0
2018-Jan-22 02:58N 33°56' E 130°49'0 0.0
2018-Jan-22 02:28N 33°56' E 130°49'0 0.0
2018-Jan-22 01:52N 33°56' E 130°49'0 0.0
2018-Jan-22 01:28N 33°56' E 130°49'0 0.0
2018-Jan-22 00:58N 33°56' E 130°49'0 0.0
2018-Jan-22 00:28N 33°56' E 130°49'0 0.0
2018-Jan-21 23:58N 33°56' E 130°49'0 0.0
2018-Jan-21 23:28N 33°56' E 130°49'1 2.1
2018-Jan-21 23:01N 33°56' E 130°51'4 7.9
2018-Jan-21 22:31N 33°55' E 130°55'4 8.5
2018-Jan-21 22:00N 33°58' E 130°58'4 8.6
2018-Jan-21 21:30N 33°57' E 131°03'611.8
2018-Jan-21 21:00N 33°54' E 131°09'1 2.9
2018-Jan-21 20:30N 33°54' E 131°07'1 2.3
2018-Jan-21 20:00N 33°55' E 131°07'611.4
2018-Jan-21 19:31N 33°52' E 131°12'611.6
2018-Jan-21 19:00N 33°51' E 131°19'612.0
2018-Jan-21 18:30N 33°50' E 131°26'611.8
2018-Jan-21 18:00N 33°48' E 131°33'611.7
2018-Jan-21 17:30N 33°47' E 131°40'611.6
2018-Jan-21 16:59N 33°46' E 131°47'2212.0
2018-Jan-21 15:10N 33°43' E 132°13'212.2
2018-Jan-21 15:00N 33°44' E 132°15'612.0
2018-Jan-21 14:30N 33°46' E 132°22'1111.6
2018-Jan-21 13:32N 33°51' E 132°34'010.8
2018-Jan-21 13:30N 33°52' E 132°34'611.3
2018-Jan-21 13:00N 33°56' E 132°39'610.8
2018-Jan-21 12:30N 33°60' E 132°44'3 0.1
2018-Jan-19 21:01N 34°01' E 132°47'112.6
2018-Jan-19 20:57N 34°01' E 132°46'511.8
2018-Jan-19 20:30N 33°57' E 132°42'611.2
2018-Jan-19 20:00N 33°53' E 132°37'611.8
2018-Jan-19 19:29N 33°49' E 132°32'611.9
2018-Jan-19 18:58N 33°46' E 132°25'611.7
2018-Jan-19 18:27N 33°44' E 132°18'511.9
2018-Jan-19 18:00N 33°42' E 132°12'1612.3
2018-Jan-19 16:39N 33°44' E 131°53'213.6
2018-Jan-19 16:30N 33°44' E 131°50'713.6
2018-Jan-19 16:00N 33°46' E 131°42'713.8
2018-Jan-19 15:30N 33°47' E 131°34'713.6
2018-Jan-19 15:00N 33°49' E 131°26'713.1
2018-Jan-19 14:30N 33°50' E 131°18'713.0
2018-Jan-19 14:00N 33°52' E 131°11'612.7
2018-Jan-19 13:30N 33°56' E 131°05'611.0
2018-Jan-19 13:00N 33°58' E 130°59'510.1
2018-Jan-19 12:30N 33°54' E 130°55'5 9.3
2018-Jan-19 12:00N 33°56' E 130°50'0 0.0
2018-Jan-19 11:30N 33°56' E 130°50'0 0.0
2018-Jan-19 10:59N 33°56' E 130°50'0 0.0
2018-Jan-19 10:29N 33°56' E 130°50'0 0.0
2018-Jan-19 09:59N 33°56' E 130°50'0 0.0
2018-Jan-19 09:29N 33°56' E 130°50'0 0.0
2018-Jan-19 08:59N 33°56' E 130°50'0 0.0
2018-Jan-19 08:29N 33°56' E 130°50'0 0.0
2018-Jan-19 07:59N 33°56' E 130°50'0 0.0
2018-Jan-19 07:29N 33°56' E 130°50'0 0.0
2018-Jan-19 06:59N 33°56' E 130°50'0 0.0
2018-Jan-19 06:29N 33°56' E 130°50'0 0.0
2018-Jan-19 05:59N 33°56' E 130°50'0 0.0
2018-Jan-19 05:29N 33°56' E 130°50'0 0.0
2018-Jan-19 04:59N 33°56' E 130°50'0 0.0
2018-Jan-19 04:29N 33°56' E 130°50'0 0.7
2018-Jan-19 04:00N 33°56' E 130°50'5 9.4
2018-Jan-19 03:30N 33°55' E 130°56'611.4
2018-Jan-19 03:00N 33°58' E 131°01'612.3
2018-Jan-19 02:30N 33°55' E 131°07'612.5
2018-Jan-19 02:00N 33°52' E 131°14'612.7
2018-Jan-19 01:30N 33°51' E 131°21'612.8
2018-Jan-19 01:00N 33°49' E 131°29'713.2
2018-Jan-19 00:30N 33°48' E 131°37'713.3
2018-Jan-19 00:00N 33°47' E 131°45'713.2
2018-Jan-18 23:29N 33°45' E 131°53'1512.4
2018-Jan-18 22:17N 33°43' E 132°11'412.2
2018-Jan-18 21:56N 33°44' E 132°15'712.2
2018-Jan-18 21:21N 33°46' E 132°23'612.5
2018-Jan-18 20:53N 33°49' E 132°30'512.8
2018-Jan-18 20:29N 33°52' E 132°35'613.4
2018-Jan-18 20:00N 33°56' E 132°40'  
Track history (hours):
 
Tides and Currents Weather Stations Pressure Air Temp Water Temp Dewpoint Dewpoint Depression Visibility Wind Speed Wind Dir Waves Ship Positions

Wakayoshi Maru No.5

Last reported at 2018-Jan-24 07:30 UTC. Time now 2018-Jan-24 07:55 UTC.
Position N 33°45' E 131°44'.

Length 76 m; draft 4.5 m.

Type: Cargo ship. MMSI: 431500615.

Date/timePositionNaut miles runAvg speedWind from/ knotsBaromVisibWave heightAir tempDewpointWater temp
2018-Jan-24 07:30N 33°45' E 131°44'713.2
2018-Jan-24 07:00N 33°47' E 131°36'612.9
2018-Jan-24 06:30N 33°48' E 131°29'612.6
2018-Jan-24 06:01N 33°49' E 131°21'612.6
2018-Jan-24 05:31N 33°51' E 131°14'612.3
2018-Jan-24 05:00N 33°54' E 131°07'612.1
2018-Jan-24 04:31N 33°58' E 131°02'5 9.5
2018-Jan-24 04:01N 33°56' E 130°56'3 6.9
2018-Jan-24 03:30N 33°56' E 130°52'2 4.1
2018-Jan-24 03:00N 33°56' E 130°50'0 0.0
2018-Jan-24 02:30N 33°56' E 130°50'0 0.0
2018-Jan-24 02:00N 33°56' E 130°50'0 0.1
2018-Jan-24 01:30N 33°56' E 130°50'0 0.0
2018-Jan-24 01:00N 33°56' E 130°50'0 0.0
2018-Jan-24 00:30N 33°56' E 130°50'0 0.0
2018-Jan-24 00:00N 33°56' E 130°50'0 0.0
2018-Jan-23 23:30N 33°56' E 130°50'2 4.7
2018-Jan-23 23:00N 33°56' E 130°53'3 5.6
2018-Jan-23 22:29N 33°56' E 130°56'3 6.8
2018-Jan-23 22:00N 33°58' E 130°59'3 6.5
2018-Jan-23 21:30N 33°57' E 131°02'0 0.2
2018-Jan-23 20:59N 33°57' E 131°02'0 0.0
2018-Jan-23 20:29N 33°57' E 131°02'0 0.1
2018-Jan-23 19:58N 33°57' E 131°02'0 0.1
2018-Jan-23 19:28N 33°57' E 131°02'0 0.1
2018-Jan-23 18:58N 33°57' E 131°02'0 0.0
2018-Jan-23 18:28N 33°57' E 131°02'0 0.0
2018-Jan-23 17:58N 33°57' E 131°02'0 0.0
2018-Jan-23 17:28N 33°57' E 131°02'0 0.0
2018-Jan-23 16:59N 33°57' E 131°02'0 0.0
2018-Jan-23 16:28N 33°57' E 131°02'0 0.0
2018-Jan-23 15:58N 33°57' E 131°02'0 0.0
2018-Jan-23 15:28N 33°57' E 131°02'0 0.0
2018-Jan-23 14:58N 33°57' E 131°02'0 0.0
2018-Jan-23 14:28N 33°57' E 131°02'0 0.0
2018-Jan-23 13:58N 33°57' E 131°02'0 0.1
2018-Jan-23 13:29N 33°57' E 131°02'0 0.0
2018-Jan-23 12:59N 33°57' E 131°02'0 0.0
2018-Jan-23 12:28N 33°57' E 131°02'0 0.0
2018-Jan-23 11:59N 33°57' E 131°02'0 0.0
2018-Jan-23 11:28N 33°57' E 131°02'0 0.0
2018-Jan-23 10:58N 33°57' E 131°02'0 0.0
2018-Jan-23 10:29N 33°57' E 131°02'0 0.0
2018-Jan-23 09:58N 33°57' E 131°02'0 0.0
2018-Jan-23 09:28N 33°57' E 131°02'0 0.0
2018-Jan-23 08:59N 33°57' E 131°02'0 0.0
2018-Jan-23 08:29N 33°57' E 131°02'0 0.0
2018-Jan-23 07:59N 33°57' E 131°02'0 0.0
2018-Jan-23 07:29N 33°57' E 131°02'0 0.0
2018-Jan-23 06:58N 33°57' E 131°02'0 0.0
2018-Jan-23 06:28N 33°57' E 131°02'0 0.1
2018-Jan-23 05:58N 33°57' E 131°02'0 0.0
2018-Jan-23 05:28N 33°57' E 131°02'0 0.0
2018-Jan-23 04:58N 33°57' E 131°02'0 0.0
2018-Jan-23 04:28N 33°57' E 131°02'0 0.0
2018-Jan-23 03:58N 33°57' E 131°02'0 0.0
2018-Jan-23 03:28N 33°57' E 131°02'0 0.0
2018-Jan-23 02:58N 33°57' E 131°02'0 0.0
2018-Jan-23 02:28N 33°57' E 131°02'0 0.0
2018-Jan-23 01:58N 33°57' E 131°02'0 0.0
2018-Jan-23 01:28N 33°57' E 131°02'0 0.0
2018-Jan-23 00:58N 33°57' E 131°02'0 0.0
2018-Jan-23 00:29N 33°57' E 131°02'0 0.1
2018-Jan-22 23:58N 33°57' E 131°02'0 0.1
2018-Jan-22 23:29N 33°57' E 131°02'0 0.0
2018-Jan-22 22:58N 33°57' E 131°02'0 0.0
2018-Jan-22 22:28N 33°57' E 131°02'0 0.0
2018-Jan-22 21:58N 33°57' E 131°02'0 0.0
2018-Jan-22 21:28N 33°57' E 131°02'0 0.0
2018-Jan-22 20:58N 33°57' E 131°02'0 0.0
2018-Jan-22 20:28N 33°57' E 131°02'0 0.0
2018-Jan-22 19:58N 33°57' E 131°02'0 0.0
2018-Jan-22 19:28N 33°57' E 131°02'0 0.0
2018-Jan-22 18:58N 33°57' E 131°02'0 0.0
2018-Jan-22 18:28N 33°57' E 131°02'0 0.0
2018-Jan-22 17:58N 33°57' E 131°02'0 0.0
2018-Jan-22 17:28N 33°57' E 131°02'0 0.0
2018-Jan-22 16:58N 33°57' E 131°02'0 0.0
2018-Jan-22 16:28N 33°57' E 131°02'0 0.1
2018-Jan-22 15:58N 33°57' E 131°02'0 0.0
2018-Jan-22 15:28N 33°57' E 131°02'0 0.1
2018-Jan-22 14:58N 33°57' E 131°02'0 0.1
2018-Jan-22 14:28N 33°57' E 131°02'0 0.0
2018-Jan-22 13:58N 33°57' E 131°02'0 0.0
2018-Jan-22 13:28N 33°57' E 131°02'0 0.0
2018-Jan-22 12:58N 33°57' E 131°02'0 0.0
2018-Jan-22 12:28N 33°57' E 131°02'0 0.0
2018-Jan-22 11:58N 33°57' E 131°02'0 0.1
2018-Jan-22 11:28N 33°57' E 131°02'0 0.0
2018-Jan-22 10:58N 33°57' E 131°02'0 0.0
2018-Jan-22 10:28N 33°57' E 131°02'2 5.3
2018-Jan-22 10:00N 33°59' E 131°00'612.5
2018-Jan-22 09:31N 33°54' E 130°55'5 9.5
2018-Jan-22 09:00N 33°56' E 130°49'0 0.0
2018-Jan-22 08:28N 33°56' E 130°49'0 0.0
2018-Jan-22 07:58N 33°56' E 130°49'0 0.0
2018-Jan-22 07:28N 33°56' E 130°49'0 0.0
2018-Jan-22 06:55N 33°56' E 130°49'0 0.0
2018-Jan-22 06:28N 33°56' E 130°49'0 0.0
2018-Jan-22 05:58N 33°56' E 130°49'0 0.0
2018-Jan-22 05:28N 33°56' E 130°49'0 0.0
2018-Jan-22 04:58N 33°56' E 130°49'0 0.0
2018-Jan-22 04:28N 33°56' E 130°49'0 0.0
2018-Jan-22 03:58N 33°56' E 130°49'0 0.0
2018-Jan-22 03:28N 33°56' E 130°49'0 0.0
2018-Jan-22 02:58N 33°56' E 130°49'0 0.0
2018-Jan-22 02:28N 33°56' E 130°49'0 0.0
2018-Jan-22 01:52N 33°56' E 130°49'0 0.0
2018-Jan-22 01:28N 33°56' E 130°49'0 0.0
2018-Jan-22 00:58N 33°56' E 130°49'0 0.0
2018-Jan-22 00:28N 33°56' E 130°49'0 0.0
2018-Jan-21 23:58N 33°56' E 130°49'0 0.0
2018-Jan-21 23:28N 33°56' E 130°49'1 2.1
2018-Jan-21 23:01N 33°56' E 130°51'4 7.9
2018-Jan-21 22:31N 33°55' E 130°55'4 8.5
2018-Jan-21 22:00N 33°58' E 130°58'4 8.6
2018-Jan-21 21:30N 33°57' E 131°03'611.8
2018-Jan-21 21:00N 33°54' E 131°09'1 2.9
2018-Jan-21 20:30N 33°54' E 131°07'1 2.3
2018-Jan-21 20:00N 33°55' E 131°07'611.4
2018-Jan-21 19:31N 33°52' E 131°12'611.6
2018-Jan-21 19:00N 33°51' E 131°19'612.0
2018-Jan-21 18:30N 33°50' E 131°26'611.8
2018-Jan-21 18:00N 33°48' E 131°33'611.7
2018-Jan-21 17:30N 33°47' E 131°40'611.6
2018-Jan-21 16:59N 33°46' E 131°47'2212.0
2018-Jan-21 15:10N 33°43' E 132°13'212.2
2018-Jan-21 15:00N 33°44' E 132°15'612.0
2018-Jan-21 14:30N 33°46' E 132°22'1111.6
2018-Jan-21 13:32N 33°51' E 132°34'010.8
2018-Jan-21 13:30N 33°52' E 132°34'611.3
2018-Jan-21 13:00N 33°56' E 132°39'610.8
2018-Jan-21 12:30N 33°60' E 132°44'3 0.1
2018-Jan-19 21:01N 34°01' E 132°47'112.6
2018-Jan-19 20:57N 34°01' E 132°46'511.8
2018-Jan-19 20:30N 33°57' E 132°42'611.2
2018-Jan-19 20:00N 33°53' E 132°37'611.8
2018-Jan-19 19:29N 33°49' E 132°32'611.9
2018-Jan-19 18:58N 33°46' E 132°25'611.7
2018-Jan-19 18:27N 33°44' E 132°18'511.9
2018-Jan-19 18:00N 33°42' E 132°12'1612.3
2018-Jan-19 16:39N 33°44' E 131°53'213.6
2018-Jan-19 16:30N 33°44' E 131°50'713.6
2018-Jan-19 16:00N 33°46' E 131°42'713.8
2018-Jan-19 15:30N 33°47' E 131°34'713.6
2018-Jan-19 15:00N 33°49' E 131°26'713.1
2018-Jan-19 14:30N 33°50' E 131°18'713.0
2018-Jan-19 14:00N 33°52' E 131°11'612.7
2018-Jan-19 13:30N 33°56' E 131°05'611.0
2018-Jan-19 13:00N 33°58' E 130°59'510.1
2018-Jan-19 12:30N 33°54' E 130°55'5 9.3
2018-Jan-19 12:00N 33°56' E 130°50'0 0.0
2018-Jan-19 11:30N 33°56' E 130°50'0 0.0
2018-Jan-19 10:59N 33°56' E 130°50'0 0.0
2018-Jan-19 10:29N 33°56' E 130°50'0 0.0
2018-Jan-19 09:59N 33°56' E 130°50'0 0.0
2018-Jan-19 09:29N 33°56' E 130°50'0 0.0
2018-Jan-19 08:59N 33°56' E 130°50'0 0.0
2018-Jan-19 08:29N 33°56' E 130°50'0 0.0
2018-Jan-19 07:59N 33°56' E 130°50'0 0.0
2018-Jan-19 07:29N 33°56' E 130°50'0 0.0
2018-Jan-19 06:59N 33°56' E 130°50'0 0.0
2018-Jan-19 06:29N 33°56' E 130°50'0 0.0
2018-Jan-19 05:59N 33°56' E 130°50'0 0.0
2018-Jan-19 05:29N 33°56' E 130°50'0 0.0
2018-Jan-19 04:59N 33°56' E 130°50'0 0.0
2018-Jan-19 04:29N 33°56' E 130°50'0 0.7
2018-Jan-19 04:00N 33°56' E 130°50'5 9.4
2018-Jan-19 03:30N 33°55' E 130°56'611.4
2018-Jan-19 03:00N 33°58' E 131°01'612.3
2018-Jan-19 02:30N 33°55' E 131°07'612.5
2018-Jan-19 02:00N 33°52' E 131°14'612.7
2018-Jan-19 01:30N 33°51' E 131°21'612.8
2018-Jan-19 01:00N 33°49' E 131°29'713.2
2018-Jan-19 00:30N 33°48' E 131°37'713.3
2018-Jan-19 00:00N 33°47' E 131°45'713.2
2018-Jan-18 23:29N 33°45' E 131°53'1512.4
2018-Jan-18 22:17N 33°43' E 132°11'412.2
2018-Jan-18 21:56N 33°44' E 132°15'712.2
2018-Jan-18 21:21N 33°46' E 132°23'612.5
2018-Jan-18 20:53N 33°49' E 132°30'512.8
2018-Jan-18 20:29N 33°52' E 132°35'613.4
2018-Jan-18 20:00N 33°56' E 132°40'  

Dump ship's entire track history